Time;durP1;ratioP1;P1;durP2;ratioP2;P2;SDS_P1;SDS_P2;PMS_P1;PMS_P2;Temp;Humidity;BMP_temperature;BMP_pressure;BME280_temperature;BME280_humidity;BME280_pressure;Samples;Min_cycle;Max_cycle;Signal;HPM_P1;HPM_P2
2024/03/14 00:01:43;;;;;;;7.27;6.53;;;10.80;99.90;;;;;;5060716;28;20209;-74
2024/03/14 00:04:10;;;;;;;6.23;5.70;;;10.60;99.90;;;;;;5061393;28;20301;-74
2024/03/14 00:06:37;;;;;;;7.70;6.97;;;10.70;99.90;;;;;;5057051;28;20416;-74
2024/03/14 00:09:04;;;;;;;6.97;6.37;;;10.70;99.90;;;;;;5056935;28;20306;-74
2024/03/14 00:11:32;;;;;;;7.03;6.43;;;10.70;99.90;;;;;;5056223;28;20242;-74
2024/03/14 00:13:59;;;;;;;6.33;5.80;;;10.70;99.90;;;;;;5056759;28;20233;-74
2024/03/14 00:16:27;;;;;;;7.60;6.80;;;10.70;99.90;;;;;;5056856;28;20214;-74
2024/03/14 00:18:54;;;;;;;7.90;7.10;;;10.70;99.90;;;;;;5057403;28;20206;-74
2024/03/14 00:21:21;;;;;;;7.20;6.53;;;10.80;99.90;;;;;;5056423;28;20226;-74
2024/03/14 00:23:49;;;;;;;8.07;7.27;;;10.80;99.90;;;;;;5056521;28;20269;-73
2024/03/14 00:26:16;;;;;;;7.37;6.57;;;10.80;99.90;;;;;;5055966;28;20309;-73
2024/03/14 00:28:43;;;;;;;7.90;7.13;;;10.60;99.90;;;;;;5055940;28;20206;-73
2024/03/14 00:31:12;;;;;;;8.13;7.37;;;10.60;99.90;;;;;;5056055;28;20218;-73
2024/03/14 00:33:39;;;;;;;8.77;7.03;;;10.60;99.90;;;;;;5056011;28;20745;-74
2024/03/14 00:36:06;;;;;;;8.47;7.57;;;10.50;99.90;;;;;;5072665;28;20290;-74
2024/03/14 00:38:33;;;;;;;9.97;8.73;;;10.50;99.90;;;;;;5072644;28;20250;-74
2024/03/14 00:41:00;;;;;;;8.27;7.57;;;10.60;99.90;;;;;;5072102;28;20277;-74
2024/03/14 00:43:27;;;;;;;8.43;7.63;;;10.50;99.90;;;;;;5072301;28;20289;-74
2024/03/14 00:45:54;;;;;;;8.27;7.50;;;10.60;99.90;;;;;;5073216;28;20203;-74
2024/03/14 00:48:21;;;;;;;10.40;7.37;;;10.60;99.90;;;;;;5072174;28;20653;-73
2024/03/14 00:50:49;;;;;;;8.27;7.47;;;10.60;99.90;;;;;;5036243;28;20224;-74
2024/03/14 00:53:16;;;;;;;9.13;8.13;;;10.60;99.90;;;;;;5055617;28;20653;-73
2024/03/14 00:55:43;;;;;;;8.87;8.03;;;10.60;99.90;;;;;;5055489;28;20203;-74
2024/03/14 00:58:11;;;;;;;9.27;8.37;;;10.50;99.90;;;;;;5055835;28;20202;-74
2024/03/14 01:00:38;;;;;;;8.60;7.80;;;10.50;99.90;;;;;;5055769;28;20218;-75
2024/03/14 01:03:08;;;;;;;9.80;8.20;;;10.50;99.90;;;;;;5055754;28;20241;-74
2024/03/14 01:05:37;;;;;;;9.10;8.07;;;10.50;99.90;;;;;;5056260;28;20215;-74
2024/03/14 01:08:05;;;;;;;10.10;8.90;;;10.50;99.90;;;;;;5056063;28;20317;-73
2024/03/14 01:10:33;;;;;;;8.93;8.07;;;10.50;99.90;;;;;;5055256;28;20211;-74
2024/03/14 01:13:00;;;;;;;9.43;8.53;;;10.50;99.90;;;;;;5051409;28;20294;-73
2024/03/14 01:15:28;;;;;;;8.70;7.77;;;10.50;99.90;;;;;;5034436;28;20557;-73
2024/03/14 01:17:55;;;;;;;9.93;9.00;;;10.40;99.90;;;;;;5035749;28;20212;-73
2024/03/14 01:20:22;;;;;;;9.63;8.63;;;10.50;99.90;;;;;;5034997;28;20234;-73
2024/03/14 01:22:49;;;;;;;9.10;8.30;;;10.50;99.90;;;;;;5053457;28;20198;-73
2024/03/14 01:25:16;;;;;;;9.40;8.40;;;10.50;99.90;;;;;;5071461;28;20205;-73
2024/03/14 01:27:43;;;;;;;9.33;8.53;;;10.50;99.90;;;;;;5065458;28;20206;-74
2024/03/14 01:30:12;;;;;;;8.97;8.17;;;10.40;99.90;;;;;;5062800;28;20293;-73
2024/03/14 01:32:39;;;;;;;9.37;8.47;;;10.40;99.90;;;;;;5055741;28;20207;-73
2024/03/14 01:35:07;;;;;;;10.20;8.90;;;10.40;99.90;;;;;;5071408;28;20687;-73
2024/03/14 01:37:34;;;;;;;9.53;8.63;;;10.40;99.90;;;;;;5071276;28;20207;-74
2024/03/14 01:40:02;;;;;;;10.43;9.30;;;10.40;99.90;;;;;;5071152;28;20218;-73
2024/03/14 01:42:29;;;;;;;9.50;8.47;;;10.40;99.90;;;;;;5070734;28;20206;-73
2024/03/14 01:44:56;;;;;;;9.60;8.70;;;10.40;99.90;;;;;;5068239;28;20385;-73
2024/03/14 01:47:23;;;;;;;10.17;9.17;;;10.40;99.90;;;;;;5054547;28;20234;-73
2024/03/14 01:49:51;;;;;;;10.07;8.93;;;10.30;99.90;;;;;;5054538;28;20313;-73
2024/03/14 01:52:18;;;;;;;10.30;9.27;;;10.30;99.90;;;;;;5054623;28;20203;-73
2024/03/14 01:54:46;;;;;;;9.93;9.03;;;10.20;99.90;;;;;;5054367;28;20264;-73
2024/03/14 01:57:13;;;;;;;10.63;9.63;;;10.20;99.90;;;;;;5054508;28;20254;-73
2024/03/14 01:59:40;;;;;;;10.30;9.20;;;10.30;99.90;;;;;;5054419;28;20258;-74
2024/03/14 02:02:07;;;;;;;10.30;9.30;;;10.30;99.90;;;;;;5054115;28;20236;-73
2024/03/14 02:04:36;;;;;;;10.60;9.53;;;10.20;99.90;;;;;;5054671;28;20210;-73
2024/03/14 02:07:04;;;;;;;12.20;9.83;;;10.20;99.90;;;;;;5054043;28;21016;-73
2024/03/14 02:09:31;;;;;;;10.40;9.40;;;10.30;99.90;;;;;;5070700;28;20289;-74
2024/03/14 02:12:00;;;;;;;10.70;9.70;;;10.30;99.90;;;;;;5070624;28;20203;-74
2024/03/14 02:14:27;;;;;;;10.00;9.10;;;10.30;99.90;;;;;;5070651;28;20972;-74
2024/03/14 02:16:55;;;;;;;10.37;9.37;;;10.40;99.90;;;;;;5070597;28;20289;-74
2024/03/14 02:19:21;;;;;;;11.67;10.47;;;10.40;99.90;;;;;;5070347;28;20657;-74
2024/03/14 02:21:49;;;;;;;11.00;9.97;;;10.40;99.90;;;;;;5070535;28;20234;-74
2024/03/14 02:24:17;;;;;;;10.07;9.17;;;10.40;99.90;;;;;;5054258;28;20214;-74
2024/03/14 02:26:44;;;;;;;10.33;9.33;;;10.40;99.90;;;;;;5054052;28;20214;-74
2024/03/14 02:29:11;;;;;;;11.50;9.27;;;10.50;99.90;;;;;;5053996;28;20293;-74
2024/03/14 02:31:38;;;;;;;11.37;10.27;;;10.40;99.90;;;;;;5054004;28;20203;-74
2024/03/14 02:34:05;;;;;;;11.23;10.17;;;10.40;99.90;;;;;;5070182;28;20207;-73
2024/03/14 02:36:32;;;;;;;12.10;10.23;;;10.40;99.90;;;;;;5070227;28;20317;-74
2024/03/14 02:38:59;;;;;;;11.07;9.97;;;10.40;99.90;;;;;;5070379;28;20291;-74
2024/03/14 02:41:28;;;;;;;11.90;10.20;;;10.40;99.90;;;;;;5069232;28;20672;-74
2024/03/14 02:43:55;;;;;;;10.77;9.77;;;10.40;99.90;;;;;;5054304;28;20207;-74
2024/03/14 02:46:22;;;;;;;11.70;10.37;;;10.50;99.90;;;;;;5053864;28;20307;-74
2024/03/14 02:48:49;;;;;;;11.20;10.07;;;10.50;99.90;;;;;;5053203;28;20654;-74
2024/03/14 02:51:18;;;;;;;11.57;10.33;;;10.20;99.90;;;;;;5053266;28;20207;-74
2024/03/14 02:53:46;;;;;;;12.10;10.93;;;10.10;99.90;;;;;;5070049;28;20654;-74
2024/03/14 02:56:13;;;;;;;11.07;9.97;;;10.20;99.90;;;;;;5070053;28;20206;-74
2024/03/14 02:58:40;;;;;;;13.00;10.70;;;10.20;99.90;;;;;;5070398;28;20272;-74
2024/03/14 03:01:08;;;;;;;12.20;10.87;;;10.30;99.90;;;;;;5069616;28;20321;-75
2024/03/14 03:03:37;;;;;;;11.17;10.03;;;10.40;99.90;;;;;;5053709;28;20401;-75
2024/03/14 03:06:05;;;;;;;10.90;9.90;;;10.40;99.90;;;;;;5067035;28;20214;-74
2024/03/14 03:08:32;;;;;;;10.87;9.87;;;10.50;99.90;;;;;;5061344;28;20203;-74
2024/03/14 03:10:59;;;;;;;11.30;10.20;;;10.50;99.90;;;;;;5058423;28;20289;-73
2024/03/14 03:13:26;;;;;;;11.13;10.03;;;10.50;99.90;;;;;;5053637;28;20318;-73
2024/03/14 03:15:53;;;;;;;12.67;10.80;;;10.50;99.90;;;;;;5031213;28;20211;-75
2024/03/14 03:18:20;;;;;;;11.40;10.30;;;10.60;99.90;;;;;;5029930;28;20291;-76
2024/03/14 03:20:47;;;;;;;11.53;9.90;;;10.60;99.90;;;;;;5029509;28;20235;-76
2024/03/14 03:23:17;;;;;;;11.23;10.13;;;10.60;99.90;;;;;;5028703;28;20322;-70
2024/03/14 03:25:43;;;;;;;11.20;10.13;;;10.60;99.90;;;;;;5029678;28;20550;-75
2024/03/14 03:28:10;;;;;;;11.07;9.73;;;10.60;99.90;;;;;;5019841;28;20209;-74
2024/03/14 03:30:37;;;;;;;10.97;9.77;;;10.60;99.90;;;;;;5010388;28;20217;-74
2024/03/14 03:33:05;;;;;;;12.27;11.00;;;10.70;99.90;;;;;;5024767;28;20197;-74
2024/03/14 03:35:33;;;;;;;11.70;10.50;;;10.60;99.90;;;;;;5016830;28;20671;-73
2024/03/14 03:38:00;;;;;;;11.27;10.17;;;10.60;99.90;;;;;;5024733;28;20299;-74
2024/03/14 03:40:35;;;;;;;13.77;11.63;;;10.60;99.90;;;;;;5026923;28;20703;-74
2024/03/14 03:43:02;;;;;;;11.77;10.10;;;10.50;99.90;;;;;;5027684;28;20736;-73
2024/03/14 03:45:29;;;;;;;11.77;10.63;;;10.60;99.90;;;;;;5026942;28;20670;-73
2024/03/14 03:48:05;;;;;;;12.77;11.47;;;10.60;99.90;;;;;;5010256;28;20209;-74
2024/03/14 03:50:32;;;;;;;12.83;10.33;;;10.60;99.90;;;;;;5008903;28;20235;-73
2024/03/14 03:52:58;;;;;;;11.63;10.43;;;10.60;99.90;;;;;;5024087;28;20239;-74
2024/03/14 03:55:25;;;;;;;12.33;11.03;;;10.50;99.90;;;;;;5026441;28;20207;-75
2024/03/14 03:57:51;;;;;;;13.90;11.20;;;10.50;99.90;;;;;;5029129;28;20258;-72
2024/03/14 04:00:33;;;;;;;12.80;10.67;;;10.50;99.90;;;;;;5016871;28;20651;-73
2024/03/14 04:02:59;;;;;;;12.27;11.07;;;10.60;99.90;;;;;;5042373;28;20227;-72
2024/03/14 04:05:26;;;;;;;12.50;11.20;;;10.60;99.90;;;;;;5027335;28;20208;-72
2024/03/14 04:07:52;;;;;;;11.80;10.33;;;10.70;99.90;;;;;;5027741;28;20290;-72
2024/03/14 04:10:23;;;;;;;14.87;11.37;;;10.70;99.90;;;;;;5027206;28;20204;-72
2024/03/14 04:12:50;;;;;;;11.80;10.60;;;10.70;99.90;;;;;;5028302;28;20203;-72
2024/03/14 04:15:17;;;;;;;12.63;11.07;;;10.80;99.90;;;;;;5027341;28;20251;-72
2024/03/14 04:17:44;;;;;;;12.23;10.97;;;10.70;99.90;;;;;;5027982;28;20315;-72
2024/03/14 04:20:12;;;;;;;12.83;11.43;;;10.60;99.90;;;;;;5008721;28;20868;-72
2024/03/14 04:22:40;;;;;;;12.43;11.13;;;10.70;99.90;;;;;;5009223;28;20917;-72
2024/03/14 04:25:10;;;;;;;13.07;11.57;;;10.70;99.90;;;;;;5008607;28;20251;-73
2024/03/14 04:27:41;;;;;;;14.20;11.93;;;10.70;99.90;;;;;;5009333;28;20199;-72
2024/03/14 04:30:10;;;;;;;12.67;11.30;;;10.70;99.90;;;;;;5009470;28;20304;-72
2024/03/14 04:32:39;;;;;;;16.83;11.80;;;10.80;99.90;;;;;;5027790;28;20220;-73
2024/03/14 04:35:08;;;;;;;13.23;11.73;;;10.80;99.90;;;;;;5027166;28;20208;-72
2024/03/14 04:37:36;;;;;;;15.17;12.67;;;10.70;99.90;;;;;;5028543;28;20216;-72
2024/03/14 04:40:10;;;;;;;13.30;11.67;;;10.70;99.90;;;;;;5028373;28;20208;-72
2024/03/14 04:42:37;;;;;;;13.23;11.67;;;10.70;99.90;;;;;;5009577;28;20880;-72
2024/03/14 04:45:06;;;;;;;16.47;13.60;;;10.80;99.90;;;;;;5008844;28;20208;-72
2024/03/14 04:47:33;;;;;;;15.13;12.80;;;10.80;99.90;;;;;;5008640;28;20283;-73
2024/03/14 04:50:00;;;;;;;15.87;13.30;;;10.80;99.90;;;;;;5012141;28;20227;-72
2024/03/14 04:52:28;;;;;;;13.80;12.10;;;10.90;99.90;;;;;;5011883;28;20668;-72
2024/03/14 04:54:55;;;;;;;17.90;13.50;;;10.90;99.90;;;;;;5011919;28;20533;-72
2024/03/14 04:57:22;;;;;;;13.17;11.77;;;10.90;99.90;;;;;;5012086;28;20212;-73
2024/03/14 04:59:49;;;;;;;15.70;13.27;;;10.90;99.90;;;;;;5012077;28;20798;-72
2024/03/14 05:02:16;;;;;;;14.03;11.93;;;10.90;99.90;;;;;;5028039;28;20243;-72
2024/03/14 05:04:43;;;;;;;17.30;13.27;;;10.90;99.90;;;;;;5011877;28;20892;-72
2024/03/14 05:07:11;;;;;;;13.93;12.10;;;10.90;99.90;;;;;;5012035;28;20208;-72
2024/03/14 05:09:38;;;;;;;17.00;13.00;;;11.00;99.90;;;;;;5011659;28;20208;-72
2024/03/14 05:12:07;;;;;;;17.13;13.63;;;11.00;99.90;;;;;;5011849;28;20212;-72
2024/03/14 05:14:36;;;;;;;16.80;13.80;;;11.00;99.90;;;;;;5016412;28;20240;-72
2024/03/14 05:17:02;;;;;;;17.30;13.47;;;11.00;99.90;;;;;;5031867;28;20212;-72
2024/03/14 05:19:29;;;;;;;17.90;13.93;;;11.00;99.90;;;;;;5031526;28;20310;-72
2024/03/14 05:21:56;;;;;;;16.47;14.00;;;11.00;99.90;;;;;;5031408;28;20238;-72
2024/03/14 05:24:24;;;;;;;17.60;13.63;;;11.00;99.90;;;;;;5031365;28;20295;-72
2024/03/14 05:26:51;;;;;;;16.63;14.07;;;11.00;99.90;;;;;;5031622;28;20200;-72
2024/03/14 05:29:19;;;;;;;17.93;13.83;;;11.00;99.90;;;;;;5027376;28;20295;-73
2024/03/14 05:31:45;;;;;;;17.47;13.97;;;11.00;99.90;;;;;;5039618;28;20241;-72
2024/03/14 05:34:12;;;;;;;17.27;13.77;;;11.00;99.90;;;;;;5031596;28;20240;-72
2024/03/14 05:36:40;;;;;;;16.73;14.03;;;10.90;99.90;;;;;;5031546;28;20287;-72
2024/03/14 05:39:07;;;;;;;17.73;14.50;;;10.90;99.90;;;;;;5031251;28;20204;-72
2024/03/14 05:41:34;;;;;;;17.40;13.47;;;10.90;99.90;;;;;;5031332;28;20262;-72
2024/03/14 05:44:01;;;;;;;15.97;13.93;;;10.90;99.90;;;;;;5031003;28;20208;-72
2024/03/14 05:46:28;;;;;;;18.30;14.43;;;10.80;99.90;;;;;;5031447;28;20232;-72
2024/03/14 05:48:56;;;;;;;20.87;15.00;;;10.80;99.90;;;;;;5031359;28;20315;-72
2024/03/14 05:51:23;;;;;;;18.80;14.47;;;10.80;99.90;;;;;;5031201;28;21072;-72
2024/03/14 05:53:50;;;;;;;17.90;14.40;;;10.90;99.90;;;;;;5031160;28;20801;-72
2024/03/14 05:56:18;;;;;;;16.57;13.40;;;11.00;99.90;;;;;;5027139;28;20208;-72
2024/03/14 05:58:45;;;;;;;18.23;14.27;;;11.00;99.90;;;;;;5047510;28;20200;-72
2024/03/14 06:01:12;;;;;;;18.40;15.03;;;11.00;99.90;;;;;;5046329;28;20234;-72
2024/03/14 06:03:42;;;;;;;17.97;14.47;;;11.00;99.90;;;;;;5030839;28;20674;-72
2024/03/14 06:06:09;;;;;;;18.43;15.00;;;11.00;99.90;;;;;;5031175;28;20243;-73
2024/03/14 06:08:36;;;;;;;19.53;14.30;;;11.00;99.90;;;;;;5031159;28;20208;-72
2024/03/14 06:11:03;;;;;;;17.60;13.90;;;11.00;99.90;;;;;;5030388;28;20294;-72
2024/03/14 06:13:29;;;;;;;20.13;13.37;;;10.90;99.90;;;;;;5030729;28;20236;-73
2024/03/14 06:15:56;;;;;;;18.60;13.97;;;10.80;99.90;;;;;;5030781;28;20299;-72
2024/03/14 06:18:23;;;;;;;20.27;14.27;;;10.90;99.90;;;;;;5030178;28;20210;-72
2024/03/14 06:20:50;;;;;;;19.00;14.30;;;10.90;99.90;;;;;;5030132;28;20259;-72
2024/03/14 06:23:17;;;;;;;20.63;14.67;;;10.90;99.90;;;;;;5030150;28;20318;-72
2024/03/14 06:25:44;;;;;;;19.40;14.03;;;10.90;99.90;;;;;;5029532;28;20303;-72
2024/03/14 06:28:11;;;;;;;22.00;14.40;;;10.90;99.90;;;;;;5030079;28;20212;-72
2024/03/14 06:30:38;;;;;;;19.07;15.13;;;11.00;99.90;;;;;;5029985;28;20240;-73
2024/03/14 06:33:05;;;;;;;18.90;14.63;;;11.00;99.90;;;;;;5029952;28;20252;-72
2024/03/14 06:35:34;;;;;;;17.37;13.40;;;11.00;99.90;;;;;;5030179;28;20290;-72
2024/03/14 06:38:01;;;;;;;21.40;15.00;;;11.00;99.90;;;;;;5030364;28;20211;-72
2024/03/14 06:40:28;;;;;;;17.27;14.23;;;11.00;99.90;;;;;;5029477;28;20937;-71
2024/03/14 06:42:55;;;;;;;16.57;14.17;;;11.00;99.90;;;;;;5029735;28;20242;-72
2024/03/14 06:45:24;;;;;;;19.27;14.50;;;11.10;99.90;;;;;;5029551;28;20200;-72
2024/03/14 06:47:51;;;;;;;23.20;15.83;;;11.00;99.90;;;;;;5030362;28;20204;-72
2024/03/14 06:50:19;;;;;;;19.23;15.40;;;11.10;99.90;;;;;;5029401;28;20357;-73
2024/03/14 06:52:48;;;;;;;17.10;14.03;;;11.10;99.90;;;;;;5029967;28;20235;-72
2024/03/14 06:55:15;;;;;;;18.27;14.70;;;11.10;99.90;;;;;;5029770;28;20208;-72
2024/03/14 06:57:45;;;;;;;21.53;15.53;;;11.10;99.90;;;;;;5029726;28;20298;-72
2024/03/14 07:00:16;;;;;;;20.77;14.93;;;11.10;99.90;;;;;;5029879;28;20210;-72
2024/03/14 07:02:44;;;;;;;20.83;15.20;;;11.10;99.90;;;;;;5029783;28;20232;-72
2024/03/14 07:05:14;;;;;;;23.13;16.70;;;11.10;99.90;;;;;;5029460;28;20436;-72
2024/03/14 07:07:42;;;;;;;22.87;15.93;;;11.00;99.90;;;;;;5029869;28;20211;-73
2024/03/14 07:10:09;;;;;;;20.10;16.07;;;10.80;99.90;;;;;;5029315;28;20244;-73
2024/03/14 07:12:36;;;;;;;22.93;16.17;;;10.90;99.90;;;;;;5028266;28;20685;-73
2024/03/14 07:15:05;;;;;;;22.83;16.97;;;10.90;99.90;;;;;;5029131;28;20769;-73
2024/03/14 07:17:34;;;;;;;22.10;17.10;;;11.00;99.90;;;;;;5029482;28;20261;-73
2024/03/14 07:20:06;;;;;;;24.40;17.33;;;11.00;99.90;;;;;;5029658;28;20204;-73
2024/03/14 07:22:34;;;;;;;24.50;17.53;;;10.90;99.90;;;;;;5026738;28;20242;-73
2024/03/14 07:25:01;;;;;;;25.37;17.57;;;10.80;99.90;;;;;;5029275;28;20208;-73
2024/03/14 07:27:28;;;;;;;23.33;16.73;;;10.90;99.90;;;;;;5029535;28;20235;-73
2024/03/14 07:29:55;;;;;;;21.37;16.97;;;11.00;99.90;;;;;;5029374;28;20200;-72
2024/03/14 07:32:24;;;;;;;22.07;16.47;;;11.00;99.90;;;;;;5012502;28;20541;-73
2024/03/14 07:34:52;;;;;;;24.67;17.07;;;11.00;99.90;;;;;;5009288;28;20209;-73
2024/03/14 07:37:23;;;;;;;19.87;15.57;;;11.10;99.90;;;;;;5009544;28;20212;-73
2024/03/14 07:39:50;;;;;;;23.20;16.20;;;11.10;99.90;;;;;;5009728;28;20279;-73
2024/03/14 07:42:18;;;;;;;22.30;17.07;;;11.10;99.90;;;;;;5009255;28;20298;-73
2024/03/14 07:44:45;;;;;;;23.83;16.80;;;11.10;99.90;;;;;;5009828;28;20209;-73
2024/03/14 07:47:19;;;;;;;22.57;17.17;;;11.10;99.90;;;;;;5016960;28;20196;-73
2024/03/14 07:49:47;;;;;;;25.50;17.43;;;11.10;99.90;;;;;;5030230;28;20228;-73
2024/03/14 07:52:14;;;;;;;23.47;18.07;;;11.10;99.90;;;;;;5028868;28;20750;-72
2024/03/14 07:54:44;;;;;;;24.60;18.43;;;11.10;99.90;;;;;;5029190;28;20214;-73
2024/03/14 07:57:13;;;;;;;25.47;17.10;;;11.10;99.90;;;;;;5029439;28;20266;-73
2024/03/14 07:59:40;;;;;;;23.93;17.37;;;11.20;99.90;;;;;;5029313;28;20212;-73
2024/03/14 08:02:10;;;;;;;24.90;17.73;;;11.10;99.90;;;;;;5029155;28;20297;-73
2024/03/14 08:04:37;;;;;;;23.20;17.70;;;11.10;99.90;;;;;;5029524;28;20212;-73
2024/03/14 08:07:10;;;;;;;24.17;17.83;;;11.20;99.90;;;;;;5028685;28;20752;-73
2024/03/14 08:09:38;;;;;;;22.73;17.57;;;11.20;99.90;;;;;;5029434;28;20196;-73
2024/03/14 08:12:06;;;;;;;24.33;18.23;;;11.20;99.90;;;;;;5028887;28;20643;-73
2024/03/14 08:14:34;;;;;;;21.03;16.83;;;11.30;99.90;;;;;;5042096;28;20235;-73
2024/03/14 08:17:02;;;;;;;22.33;18.17;;;11.30;99.90;;;;;;5049099;28;20208;-73
2024/03/14 08:19:30;;;;;;;22.30;16.90;;;11.40;99.90;;;;;;5021063;28;20308;-73
2024/03/14 08:21:57;;;;;;;23.33;17.20;;;11.40;99.90;;;;;;5025355;28;20323;-73
2024/03/14 08:24:26;;;;;;;21.97;17.10;;;11.40;99.90;;;;;;5028052;28;20303;-73
2024/03/14 08:26:54;;;;;;;22.00;16.07;;;11.50;99.90;;;;;;5029085;28;20208;-73
2024/03/14 08:29:25;;;;;;;21.60;17.03;;;11.50;99.90;;;;;;5029080;28;20758;-73
2024/03/14 08:31:59;;;;;;;23.60;17.33;;;11.50;99.90;;;;;;5054014;28;20218;-73
2024/03/14 08:34:27;;;;;;;24.07;17.37;;;11.50;99.90;;;;;;5053105;28;20230;-73
2024/03/14 08:36:56;;;;;;;20.73;15.67;;;11.50;99.90;;;;;;5052640;28;20718;-73
2024/03/14 08:39:24;;;;;;;24.27;16.83;;;11.60;99.90;;;;;;5052747;28;20294;-73
2024/03/14 08:41:51;;;;;;;23.87;17.17;;;11.60;99.90;;;;;;5052634;28;20209;-73
2024/03/14 08:44:18;;;;;;;21.20;16.33;;;11.60;99.90;;;;;;5022553;28;20296;-73
2024/03/14 08:46:45;;;;;;;22.27;16.13;;;11.70;99.90;;;;;;5012866;28;20287;-73
2024/03/14 08:49:14;;;;;;;22.57;16.40;;;11.70;99.90;;;;;;5012521;28;20707;-73
2024/03/14 08:51:42;;;;;;;21.20;16.00;;;11.70;99.90;;;;;;5013056;28;20318;-73
2024/03/14 08:54:14;;;;;;;22.80;16.77;;;11.70;99.90;;;;;;5012339;28;20627;-73
2024/03/14 08:56:41;;;;;;;23.73;15.83;;;11.70;99.90;;;;;;5012960;28;20670;-73
2024/03/14 08:59:08;;;;;;;20.97;16.23;;;11.70;99.90;;;;;;5012994;28;20955;-72
2024/03/14 09:01:35;;;;;;;22.40;17.07;;;11.70;99.90;;;;;;5031840;28;20556;-73
2024/03/14 09:04:02;;;;;;;20.63;15.67;;;11.70;99.90;;;;;;5031732;28;20227;-73
2024/03/14 09:06:31;;;;;;;20.77;17.10;;;11.70;99.90;;;;;;5032027;28;20672;-73
2024/03/14 09:09:00;;;;;;;21.03;15.87;;;11.80;99.90;;;;;;5032287;28;20299;-72
2024/03/14 09:11:27;;;;;;;21.40;16.00;;;11.80;99.90;;;;;;5031994;28;20212;-72
2024/03/14 09:13:54;;;;;;;22.20;15.50;;;11.80;99.90;;;;;;5042960;28;20270;-72
2024/03/14 09:16:21;;;;;;;20.93;15.67;;;11.80;99.90;;;;;;5054463;28;20209;-72
2024/03/14 09:18:48;;;;;;;23.13;16.37;;;11.90;99.90;;;;;;5055333;28;20610;-73
2024/03/14 09:21:15;;;;;;;21.33;16.63;;;11.90;99.90;;;;;;5054922;28;20246;-73
2024/03/14 09:23:42;;;;;;;20.77;15.77;;;12.00;99.90;;;;;;5055020;28;20313;-73
2024/03/14 09:26:09;;;;;;;19.93;15.37;;;12.00;99.90;;;;;;5054501;28;20283;-73
2024/03/14 09:28:38;;;;;;;20.33;15.83;;;12.00;99.90;;;;;;5054696;28;20252;-73
2024/03/14 09:31:08;;;;;;;19.60;14.80;;;12.10;99.90;;;;;;5051471;28;20233;-73
2024/03/14 09:33:37;;;;;;;20.10;15.57;;;12.00;99.90;;;;;;5036144;28;20290;-73
2024/03/14 09:36:09;;;;;;;22.07;15.83;;;12.10;99.90;;;;;;5034440;28;20532;-72
2024/03/14 09:38:36;;;;;;;21.63;15.83;;;12.00;99.90;;;;;;5036348;28;20203;-73
2024/03/14 09:41:04;;;;;;;20.27;14.90;;;12.10;99.90;;;;;;5053454;28;20245;-73
2024/03/14 09:43:31;;;;;;;20.83;16.50;;;12.10;99.90;;;;;;5054811;28;20230;-72
2024/03/14 09:45:59;;;;;;;19.23;15.50;;;12.10;99.90;;;;;;5054237;28;20206;-72
2024/03/14 09:48:26;;;;;;;19.57;15.40;;;12.10;99.90;;;;;;5054605;28;20297;-72
2024/03/14 09:50:53;;;;;;;18.97;14.90;;;12.20;99.90;;;;;;5054603;28;20284;-72
2024/03/14 09:53:23;;;;;;;19.77;15.67;;;12.20;99.90;;;;;;5054040;28;20289;-72
2024/03/14 09:55:50;;;;;;;17.80;15.10;;;12.20;99.90;;;;;;5055237;28;20214;-72
2024/03/14 09:58:20;;;;;;;18.97;14.77;;;12.20;99.90;;;;;;5054210;28;20234;-72
2024/03/14 10:00:47;;;;;;;18.33;14.13;;;12.30;99.90;;;;;;5054447;28;20218;-72
2024/03/14 10:03:14;;;;;;;19.70;16.13;;;12.30;99.90;;;;;;5053441;28;20317;-72
2024/03/14 10:05:41;;;;;;;18.37;15.10;;;12.30;99.90;;;;;;5053944;28;20622;-73
2024/03/14 10:08:08;;;;;;;17.30;14.87;;;12.30;99.90;;;;;;5053676;28;20691;-72
2024/03/14 10:10:37;;;;;;;18.37;14.83;;;12.30;99.90;;;;;;5050551;28;20207;-72
2024/03/14 10:13:04;;;;;;;18.50;14.43;;;12.30;99.90;;;;;;5051585;28;20583;-72
2024/03/14 10:15:37;;;;;;;17.37;14.83;;;12.30;99.90;;;;;;5053663;28;20195;-72
2024/03/14 10:18:05;;;;;;;15.47;13.80;;;12.30;99.90;;;;;;5055589;28;20286;-73
2024/03/14 10:20:33;;;;;;;18.37;14.63;;;12.30;99.90;;;;;;5053751;28;20206;-72
2024/03/14 10:23:03;;;;;;;15.80;13.67;;;12.30;99.90;;;;;;5053802;28;20245;-72
2024/03/14 10:25:35;;;;;;;15.00;13.40;;;12.40;99.90;;;;;;5053278;28;20938;-72
2024/03/14 10:28:05;;;;;;;16.10;13.07;;;12.40;99.90;;;;;;5055140;28;20245;-72
2024/03/14 10:30:33;;;;;;;15.23;13.50;;;12.50;99.90;;;;;;5054120;28;20297;-72
2024/03/14 10:33:00;;;;;;;16.03;14.23;;;12.50;99.90;;;;;;5086945;28;20301;-72
2024/03/14 10:35:30;;;;;;;16.03;13.00;;;12.50;99.90;;;;;;5053103;28;20673;-72
2024/03/14 10:37:58;;;;;;;14.30;12.40;;;12.60;99.90;;;;;;5054088;28;20206;-72
2024/03/14 10:40:27;;;;;;;15.07;13.03;;;12.70;99.90;;;;;;5053301;28;20202;-72
2024/03/14 10:42:54;;;;;;;14.80;11.83;;;12.80;99.90;;;;;;5054028;28;20230;-72
2024/03/14 10:45:22;;;;;;;13.03;11.27;;;12.90;99.90;;;;;;5052744;28;20759;-72
2024/03/14 10:47:50;;;;;;;13.80;12.17;;;12.90;99.90;;;;;;5053064;28;20234;-72
2024/03/14 10:50:19;;;;;;;14.60;12.93;;;13.00;99.90;;;;;;5053048;28;20250;-73
2024/03/14 10:52:49;;;;;;;12.77;11.20;;;13.10;99.90;;;;;;5053466;28;20217;-72
2024/03/14 10:55:16;;;;;;;12.80;11.33;;;13.20;99.90;;;;;;5053685;28;20198;-72
2024/03/14 10:57:43;;;;;;;13.07;11.00;;;13.30;99.90;;;;;;5052728;28;20654;-72
2024/03/14 11:00:14;;;;;;;13.50;12.10;;;13.40;99.90;;;;;;5052858;28;20217;-73
2024/03/14 11:02:43;;;;;;;13.53;11.73;;;13.50;99.90;;;;;;5049742;28;20213;-73
2024/03/14 11:05:11;;;;;;;11.60;10.30;;;13.60;99.90;;;;;;5033219;28;20212;-72
2024/03/14 11:07:39;;;;;;;13.17;11.63;;;13.70;99.90;;;;;;5040449;28;20205;-73
2024/03/14 11:10:09;;;;;;;11.80;10.60;;;13.80;99.90;;;;;;5053168;28;20238;-73
2024/03/14 11:12:36;;;;;;;11.80;10.10;;;13.80;99.90;;;;;;5053803;28;20230;-73
2024/03/14 11:15:07;;;;;;;12.03;10.83;;;13.90;99.90;;;;;;5052624;28;20265;-73
2024/03/14 11:17:34;;;;;;;12.03;10.73;;;14.00;99.90;;;;;;5053684;28;20191;-73
2024/03/14 11:20:03;;;;;;;12.30;11.10;;;14.00;99.90;;;;;;5053052;28;20264;-73
2024/03/14 11:22:30;;;;;;;12.53;10.97;;;14.10;99.90;;;;;;5052964;28;20222;-73
2024/03/14 11:24:57;;;;;;;11.47;10.27;;;14.20;99.90;;;;;;5052424;28;21012;-73
2024/03/14 11:27:24;;;;;;;13.20;11.03;;;14.40;99.90;;;;;;5052558;28;20237;-71
2024/03/14 11:29:52;;;;;;;13.97;11.97;;;14.60;99.90;;;;;;5052772;28;20290;-73
2024/03/14 11:32:22;;;;;;;11.60;10.50;;;14.80;99.90;;;;;;5052810;28;20273;-72
2024/03/14 11:34:49;;;;;;;14.27;11.67;;;14.90;99.90;;;;;;5053035;28;21019;-72
2024/03/14 11:37:16;;;;;;;10.63;9.63;;;15.00;99.90;;;;;;5052371;28;20235;-72
2024/03/14 11:39:46;;;;;;;12.97;10.83;;;15.00;99.90;;;;;;5052229;28;20206;-72
2024/03/14 11:42:14;;;;;;;12.03;10.63;;;15.00;99.90;;;;;;5053025;28;20202;-72
2024/03/14 11:44:44;;;;;;;9.57;8.57;;;15.00;99.90;;;;;;5052511;28;20242;-72
2024/03/14 11:47:13;;;;;;;11.07;9.97;;;15.00;99.90;;;;;;5052677;28;20280;-72
2024/03/14 11:49:42;;;;;;;8.97;8.07;;;15.10;99.90;;;;;;5053095;28;20222;-72
2024/03/14 11:52:11;;;;;;;8.87;7.97;;;15.40;99.90;;;;;;5052282;28;20653;-73
2024/03/14 11:54:40;;;;;;;7.00;6.40;;;15.50;99.90;;;;;;5052984;28;20267;-72
2024/03/14 11:57:08;;;;;;;6.57;6.00;;;15.50;99.90;;;;;;5053232;28;20203;-72
2024/03/14 11:59:38;;;;;;;6.20;5.63;;;15.50;99.90;;;;;;5056328;28;20337;-73
2024/03/14 12:02:05;;;;;;;9.10;5.30;;;15.40;99.90;;;;;;5053287;28;20272;-73
2024/03/14 12:04:31;;;;;;;6.87;5.47;;;15.30;99.90;;;;;;5051806;28;20333;-73
2024/03/14 12:06:59;;;;;;;6.07;5.57;;;15.30;99.90;;;;;;5056234;28;20720;-72
2024/03/14 12:09:30;;;;;;;5.70;5.27;;;15.20;99.90;;;;;;5056383;28;20198;-73
2024/03/14 12:11:57;;;;;;;6.33;5.83;;;15.10;99.90;;;;;;5057346;28;20195;-72
2024/03/14 12:14:24;;;;;;;6.57;5.97;;;15.10;99.90;;;;;;5055717;28;20238;-72
2024/03/14 12:16:51;;;;;;;5.87;5.47;;;15.00;99.90;;;;;;5056045;28;20206;-72
2024/03/14 12:19:19;;;;;;;6.23;5.73;;;15.00;99.90;;;;;;5055581;28;20289;-72
2024/03/14 12:21:57;;;;;;;6.13;5.60;;;14.90;99.90;;;;;;5055702;28;20253;-72
2024/03/14 12:24:24;;;;;;;6.30;5.73;;;14.90;99.90;;;;;;5057139;28;20332;-72
2024/03/14 12:26:51;;;;;;;6.23;5.73;;;14.80;99.90;;;;;;5055903;28;20210;-72
2024/03/14 12:29:19;;;;;;;5.83;5.43;;;14.70;99.90;;;;;;5055743;28;20290;-72
2024/03/14 12:31:47;;;;;;;6.17;5.60;;;14.70;99.90;;;;;;5052187;28;20211;-72
2024/03/14 12:34:14;;;;;;;6.07;5.47;;;14.60;99.90;;;;;;5035928;28;20676;-72